createdAt,value
2018-08-19T00:00:01.165Z,74.27
2018-08-19T00:02:31.213Z,74.27
2018-08-19T00:05:10.975Z,74.97
2018-08-19T00:07:41.042Z,74.56
2018-08-19T00:10:11.036Z,74.74
2018-08-19T00:12:47.874Z,75.41
2018-08-19T00:15:17.775Z,74.64
2018-08-19T00:17:47.770Z,75.03
2018-08-19T00:20:17.760Z,74.84
2018-08-19T00:22:49.304Z,74.84
2018-08-19T00:25:31.729Z,75.32
2018-08-19T00:28:02.289Z,75.27
2018-08-19T00:30:34.223Z,75.14
2018-08-19T00:33:04.552Z,74.62
2018-08-19T00:35:34.532Z,74.23
2018-08-19T00:38:04.863Z,74.63
2018-08-19T00:40:34.682Z,74.49
2018-08-19T00:43:04.872Z,74.91
2018-08-19T00:45:34.973Z,74.17
2018-08-19T00:48:05.225Z,75.12
2018-08-19T00:50:35.275Z,74.81
2018-08-19T00:53:05.239Z,74.87
2018-08-19T00:55:40.603Z,74.78
2018-08-19T00:58:19.385Z,75.21
2018-08-19T01:00:49.492Z,74.70
2018-08-19T01:03:19.508Z,75.29
2018-08-19T01:05:49.532Z,74.15
2018-08-19T01:08:19.847Z,74.97
2018-08-19T01:10:49.888Z,74.76
2018-08-19T01:13:20.030Z,75.52
2018-08-19T01:15:49.992Z,75.72
2018-08-19T01:18:19.909Z,75.44
2018-08-19T01:20:54.204Z,76.15
2018-08-19T01:23:24.260Z,75.79
2018-08-19T01:25:54.373Z,76.94
2018-08-19T01:28:24.644Z,76.78
2018-08-19T01:30:54.646Z,76.66
2018-08-19T01:33:24.695Z,76.51
2018-08-19T01:35:54.743Z,76.97
2018-08-19T01:38:24.817Z,76.87
2018-08-19T01:40:55.293Z,76.20
2018-08-19T01:43:25.317Z,75.90
2018-08-19T01:45:55.353Z,75.92
2018-08-19T01:48:25.461Z,76.29
2018-08-19T01:50:55.321Z,76.25
2018-08-19T01:53:25.382Z,75.96
2018-08-19T01:55:55.539Z,76.15
2018-08-19T01:58:26.136Z,76.23
2018-08-19T02:00:56.281Z,77.08
2018-08-19T02:03:26.173Z,76.29
2018-08-19T02:05:56.341Z,77.07
2018-08-19T02:08:26.206Z,76.93
2018-08-19T02:10:56.176Z,77.61
2018-08-19T02:13:26.367Z,77.59
2018-08-19T02:15:59.202Z,77.00
2018-08-19T02:18:29.121Z,76.96
2018-08-19T02:20:58.955Z,76.63
2018-08-19T02:23:29.018Z,76.55
2018-08-19T02:25:58.889Z,77.19
2018-08-19T02:28:28.884Z,76.19
2018-08-19T02:31:01.289Z,77.39
2018-08-19T02:33:36.328Z,77.35
2018-08-19T02:36:07.578Z,76.97
2018-08-19T02:38:38.846Z,77.60
2018-08-19T02:41:09.040Z,78.40
2018-08-19T02:43:49.540Z,78.29
2018-08-19T02:46:19.509Z,77.90
2018-08-19T02:48:51.259Z,77.57
2018-08-19T02:51:21.785Z,77.62
2018-08-19T02:53:52.399Z,77.50
2018-08-19T02:56:22.355Z,77.63
2018-08-19T02:58:52.250Z,77.25
2018-08-19T03:01:22.200Z,77.62
2018-08-19T03:03:52.330Z,77.93
2018-08-19T03:06:22.469Z,77.37
2018-08-19T03:08:56.388Z,76.89
2018-08-19T03:11:26.288Z,77.64
2018-08-19T03:13:57.057Z,77.12
2018-08-19T03:16:26.980Z,78.11
2018-08-19T03:18:57.105Z,77.56
2018-08-19T03:21:27.013Z,77.22
2018-08-19T03:23:56.960Z,77.06
2018-08-19T03:26:26.969Z,77.30
2018-08-19T03:28:56.965Z,78.03
2018-08-19T03:31:26.865Z,78.33
2018-08-19T03:33:56.714Z,77.83
2018-08-19T03:36:26.615Z,77.00
2018-08-19T03:39:04.581Z,77.41
2018-08-19T03:41:34.965Z,77.81
2018-08-19T03:44:05.224Z,77.61
2018-08-19T03:46:35.253Z,76.64
2018-08-19T03:49:05.195Z,76.94
2018-08-19T03:51:35.095Z,76.80
2018-08-19T03:54:05.272Z,76.70
2018-08-19T03:56:35.445Z,76.46
2018-08-19T03:59:07.124Z,77.13
2018-08-19T04:01:44.341Z,76.45
2018-08-19T04:04:17.016Z,76.59
2018-08-19T04:06:47.156Z,76.41
2018-08-19T04:09:17.414Z,76.63
2018-08-19T04:12:02.803Z,75.90
2018-08-19T04:14:32.625Z,76.25
2018-08-19T04:17:02.960Z,76.34
2018-08-19T04:19:32.813Z,76.32
2018-08-19T04:22:05.748Z,76.36
2018-08-19T04:24:36.345Z,75.87
2018-08-19T04:27:13.962Z,76.82
2018-08-19T04:29:44.305Z,76.47
2018-08-19T04:32:20.128Z,75.77
2018-08-19T04:34:50.283Z,75.71
2018-08-19T04:37:20.311Z,76.01
2018-08-19T04:39:50.382Z,75.91
2018-08-19T04:42:20.418Z,75.70
2018-08-19T04:44:50.212Z,75.34
2018-08-19T04:47:30.251Z,75.17
2018-08-19T04:50:00.229Z,75.45
2018-08-19T04:52:32.640Z,75.51
2018-08-19T04:55:02.736Z,75.52
2018-08-19T04:57:32.620Z,75.60
2018-08-19T05:00:02.435Z,74.92
2018-08-19T05:02:32.364Z,74.69
2018-08-19T05:05:02.142Z,74.98
2018-08-19T05:07:32.077Z,75.16
2018-08-19T05:10:01.948Z,74.91
2018-08-19T05:12:32.013Z,74.60
2018-08-19T05:15:01.878Z,74.22
2018-08-19T05:17:31.935Z,73.53
2018-08-19T05:20:16.141Z,73.93
2018-08-19T05:22:46.181Z,73.44
2018-08-19T05:25:16.077Z,73.00
2018-08-19T05:27:51.944Z,73.03
2018-08-19T05:30:22.009Z,71.74
2018-08-19T05:32:57.288Z,71.08
2018-08-19T05:35:27.410Z,70.22
2018-08-19T05:37:57.562Z,69.46
2018-08-19T05:40:27.361Z,68.92
2018-08-19T05:42:57.342Z,67.39
2018-08-19T05:45:27.233Z,65.40
2018-08-19T05:48:09.563Z,64.31
2018-08-19T05:50:39.426Z,64.02
2018-08-19T05:53:09.323Z,65.08
2018-08-19T05:55:39.234Z,65.25
2018-08-19T05:58:08.988Z,64.42
2018-08-19T06:00:43.989Z,64.49
2018-08-19T06:03:13.832Z,63.66
2018-08-19T06:05:43.779Z,63.57
2018-08-19T06:08:14.997Z,63.78
2018-08-19T06:10:44.912Z,63.34
2018-08-19T06:13:15.176Z,63.12
2018-08-19T06:15:45.273Z,62.94
2018-08-19T06:18:15.097Z,63.23
2018-08-19T06:20:45.214Z,63.70
2018-08-19T06:23:15.281Z,62.94
2018-08-19T06:25:45.074Z,62.80
2018-08-19T06:28:15.047Z,62.65
2018-08-19T06:30:45.516Z,62.55
2018-08-19T06:33:15.325Z,62.92
2018-08-19T06:35:45.228Z,63.19
2018-08-19T06:38:15.090Z,63.36
2018-08-19T06:40:45.003Z,62.94
2018-08-19T06:43:15.083Z,62.47
2018-08-19T06:45:45.484Z,61.60
2018-08-19T06:48:15.607Z,62.30
2018-08-19T06:50:45.391Z,61.75
2018-08-19T06:53:20.612Z,60.82
2018-08-19T06:55:51.909Z,61.44
2018-08-19T06:58:22.001Z,59.83
2018-08-19T07:00:51.863Z,59.84
2018-08-19T07:03:21.722Z,59.04
2018-08-19T07:06:11.609Z,59.96
2018-08-19T07:08:41.477Z,58.99
2018-08-19T07:11:11.339Z,58.77
2018-08-19T07:13:41.422Z,59.28
2018-08-19T07:16:11.409Z,58.54
2018-08-19T07:18:41.403Z,58.27
2018-08-19T07:21:11.316Z,58.62
2018-08-19T07:23:41.228Z,59.28
2018-08-19T07:26:11.053Z,58.10
2018-08-19T07:28:40.971Z,58.85
2018-08-19T07:31:11.408Z,58.55
2018-08-19T07:33:41.328Z,58.44
2018-08-19T07:36:11.325Z,59.03
2018-08-19T07:38:41.342Z,58.70
2018-08-19T07:41:11.289Z,58.97
2018-08-19T07:43:41.283Z,58.13
2018-08-19T07:46:11.292Z,56.97
2018-08-19T07:48:41.160Z,58.07
2018-08-19T07:51:11.099Z,58.86
2018-08-19T07:53:40.908Z,57.19
2018-08-19T07:56:11.187Z,57.90
2018-08-19T07:58:43.161Z,57.13
2018-08-19T08:01:13.035Z,55.95
2018-08-19T08:03:42.971Z,55.22
2018-08-19T08:06:12.961Z,55.96
2018-08-19T08:08:42.951Z,54.07
2018-08-19T08:11:12.779Z,54.92
2018-08-19T08:13:42.732Z,54.51
2018-08-19T08:16:12.713Z,55.09
2018-08-19T08:18:42.704Z,54.69
2018-08-19T08:21:13.754Z,53.72
2018-08-19T08:23:43.979Z,54.20
2018-08-19T08:26:14.210Z,54.62
2018-08-19T08:28:53.390Z,53.46
2018-08-19T08:31:23.516Z,53.41
2018-08-19T08:33:53.705Z,52.66
2018-08-19T08:36:23.708Z,53.76
2018-08-19T08:38:54.300Z,53.42
2018-08-19T08:41:26.136Z,53.46
2018-08-19T08:43:56.157Z,52.84
2018-08-19T08:46:26.045Z,53.87
2018-08-19T08:48:56.263Z,53.22
2018-08-19T08:51:26.061Z,52.61
2018-08-19T08:53:56.473Z,52.60
2018-08-19T08:56:26.485Z,53.04
2018-08-19T08:58:56.390Z,52.61
2018-08-19T09:01:26.499Z,52.45
2018-08-19T09:03:56.441Z,52.74
2018-08-19T09:06:29.168Z,51.53
2018-08-19T09:08:59.383Z,52.00
2018-08-19T09:11:29.274Z,52.12
2018-08-19T09:13:59.430Z,52.12
2018-08-19T09:16:29.443Z,53.14
2018-08-19T09:18:59.478Z,53.12
2018-08-19T09:21:29.949Z,51.93
2018-08-19T09:23:59.988Z,53.04
2018-08-19T09:26:29.875Z,52.30
2018-08-19T09:28:59.799Z,52.55
2018-08-19T09:31:30.172Z,52.52
2018-08-19T09:34:00.807Z,52.00
2018-08-19T09:36:30.783Z,52.02
2018-08-19T09:39:00.839Z,52.73
2018-08-19T09:41:31.185Z,52.91
2018-08-19T09:44:01.197Z,52.47
2018-08-19T09:46:31.334Z,52.06
2018-08-19T09:49:01.316Z,51.54
2018-08-19T09:51:31.432Z,51.98
2018-08-19T09:54:01.537Z,51.86
2018-08-19T09:56:36.432Z,51.72
2018-08-19T09:59:07.172Z,51.67
2018-08-19T10:01:42.077Z,50.64
2018-08-19T10:04:21.957Z,50.46
2018-08-19T10:07:02.294Z,50.98
2018-08-19T10:09:32.346Z,50.92
2018-08-19T10:12:02.363Z,51.38
2018-08-19T10:14:32.362Z,49.98
2018-08-19T10:17:02.484Z,50.60
2018-08-19T10:19:32.646Z,49.95
2018-08-19T10:22:02.697Z,48.98
2018-08-19T10:24:33.764Z,49.00
2018-08-19T10:27:07.685Z,49.77
2018-08-19T10:29:37.817Z,49.41
2018-08-19T10:32:08.193Z,47.00
2018-08-19T10:34:38.401Z,48.28
2018-08-19T10:37:08.423Z,49.24
2018-08-19T10:39:38.460Z,49.60
2018-08-19T10:42:22.753Z,49.91
2018-08-19T10:44:53.490Z,50.32
2018-08-19T10:47:23.790Z,49.41
2018-08-19T10:50:05.327Z,50.04
2018-08-19T10:52:42.014Z,49.06
2018-08-19T10:55:13.495Z,49.51
2018-08-19T10:57:43.660Z,49.64
2018-08-19T11:00:17.372Z,49.39
2018-08-19T11:02:47.548Z,48.72
2018-08-19T11:05:17.699Z,49.32
2018-08-19T11:07:47.875Z,48.98
2018-08-19T11:10:23.667Z,48.59
2018-08-19T11:12:56.927Z,48.10
2018-08-19T11:15:43.204Z,47.49
2018-08-19T11:18:29.935Z,47.46
2018-08-19T11:21:04.100Z,47.45
2018-08-19T11:23:38.963Z,48.68
2018-08-19T11:26:09.711Z,47.86
2018-08-19T11:28:45.468Z,47.93
2018-08-19T11:31:22.964Z,48.86
2018-08-19T11:33:54.172Z,48.62
2018-08-19T11:36:56.756Z,49.04
2018-08-19T11:39:57.427Z,48.48
2018-08-19T11:42:30.451Z,47.98
2018-08-19T11:45:00.403Z,48.83
2018-08-19T11:47:30.170Z,48.75
2018-08-19T11:50:00.176Z,47.88
2018-08-19T11:52:30.025Z,48.18
2018-08-19T11:55:00.020Z,48.53
2018-08-19T11:57:30.014Z,48.55
2018-08-19T11:59:59.921Z,49.10
2018-08-19T12:02:29.815Z,49.47
2018-08-19T12:04:59.639Z,48.48
2018-08-19T12:07:29.543Z,49.15
2018-08-19T12:10:01.416Z,48.82
2018-08-19T12:12:50.091Z,48.84
2018-08-19T12:15:20.623Z,48.44
2018-08-19T12:17:50.495Z,48.52
2018-08-19T12:20:36.137Z,47.98
2018-08-19T12:23:06.250Z,47.47
2018-08-19T12:25:36.427Z,48.87
2018-08-19T12:28:06.659Z,48.00
2018-08-19T12:30:36.532Z,47.90
2018-08-19T12:33:26.543Z,47.91
2018-08-19T12:35:58.010Z,47.76
2018-08-19T12:38:28.016Z,48.80
2018-08-19T12:40:58.217Z,49.02
2018-08-19T12:43:28.106Z,47.41
2018-08-19T12:45:59.156Z,47.72
2018-08-19T12:48:29.725Z,47.75
2018-08-19T12:51:05.518Z,46.28
2018-08-19T12:53:35.913Z,46.34
2018-08-19T12:56:05.865Z,47.23
2018-08-19T12:58:35.785Z,46.55
2018-08-19T13:01:06.009Z,47.49
2018-08-19T13:03:36.052Z,45.84
2018-08-19T13:06:07.967Z,45.42
2018-08-19T13:08:37.944Z,45.41
2018-08-19T13:11:08.850Z,44.60
2018-08-19T13:13:38.886Z,44.71
2018-08-19T13:16:09.181Z,44.81
2018-08-19T13:18:42.232Z,44.48
2018-08-19T13:21:16.352Z,44.32
2018-08-19T13:23:46.593Z,43.73
2018-08-19T13:26:16.539Z,44.30
2018-08-19T13:29:00.820Z,44.48
2018-08-19T13:31:34.742Z,43.89
2018-08-19T13:34:05.017Z,43.97
2018-08-19T13:36:35.005Z,43.11
2018-08-19T13:39:07.469Z,42.37
2018-08-19T13:41:37.777Z,42.41
2018-08-19T13:44:07.825Z,42.99
2018-08-19T13:46:37.728Z,42.02
2018-08-19T13:49:07.740Z,43.13
2018-08-19T13:51:38.008Z,42.92
2018-08-19T13:54:08.080Z,42.55
2018-08-19T13:56:38.219Z,41.64
2018-08-19T13:59:08.312Z,41.40
2018-08-19T14:01:38.221Z,40.74
2018-08-19T14:04:08.774Z,39.37
2018-08-19T14:06:39.299Z,40.96
2018-08-19T14:09:10.220Z,40.20
2018-08-19T14:11:40.584Z,39.40
2018-08-19T14:14:11.226Z,39.23
2018-08-19T14:16:41.132Z,39.38
2018-08-19T14:19:11.295Z,38.87
2018-08-19T14:21:41.223Z,39.30
2018-08-19T14:24:11.194Z,39.93
2018-08-19T14:26:41.087Z,39.65
2018-08-19T14:29:11.050Z,39.43
2018-08-19T14:31:41.399Z,37.65
2018-08-19T14:34:11.539Z,37.90
2018-08-19T14:36:41.852Z,39.16
2018-08-19T14:39:11.987Z,38.38
2018-08-19T14:41:42.173Z,38.10
2018-08-19T14:44:12.216Z,38.62
2018-08-19T14:46:42.119Z,37.49
2018-08-19T14:49:11.943Z,36.66
2018-08-19T14:51:55.190Z,37.11
2018-08-19T14:54:25.361Z,37.31
2018-08-19T14:56:55.508Z,36.39
2018-08-19T14:59:25.547Z,36.79
2018-08-19T15:01:55.572Z,37.52
2018-08-19T15:04:25.505Z,37.20
2018-08-19T15:06:55.699Z,37.34
2018-08-19T15:09:31.027Z,36.38
2018-08-19T15:12:13.387Z,36.64
2018-08-19T15:14:44.332Z,37.45
2018-08-19T15:17:14.326Z,39.20
2018-08-19T15:19:49.263Z,40.78
2018-08-19T15:22:19.373Z,41.46
2018-08-19T15:24:49.877Z,41.77
2018-08-19T15:27:20.015Z,42.63
2018-08-19T15:29:52.653Z,44.37
2018-08-19T15:32:24.448Z,44.79
2018-08-19T15:34:54.194Z,45.72
2018-08-19T15:37:24.174Z,46.08
2018-08-19T15:39:54.263Z,45.04
2018-08-19T15:42:24.289Z,45.09
2018-08-19T15:44:54.054Z,45.87
2018-08-19T15:47:24.024Z,46.60
2018-08-19T15:50:24.993Z,46.75
2018-08-19T15:52:56.336Z,47.07
2018-08-19T15:55:26.386Z,46.74
2018-08-19T15:57:59.780Z,47.05
2018-08-19T16:00:29.915Z,47.45
2018-08-19T16:02:59.832Z,48.01
2018-08-19T16:05:29.851Z,47.22
2018-08-19T16:07:59.923Z,47.87
2018-08-19T16:10:29.917Z,47.77
2018-08-19T16:13:00.374Z,48.25
2018-08-19T16:15:30.358Z,48.68
2018-08-19T16:18:00.322Z,48.86
2018-08-19T16:20:30.308Z,48.97
2018-08-19T16:23:00.188Z,48.86
2018-08-19T16:25:30.047Z,49.05
2018-08-19T16:28:00.057Z,48.46
2018-08-19T16:30:30.098Z,48.77
2018-08-19T16:33:00.115Z,48.47
2018-08-19T16:35:30.240Z,49.45
2018-08-19T16:38:00.313Z,48.74
2018-08-19T16:40:30.365Z,49.36
2018-08-19T16:43:00.378Z,49.69
2018-08-19T16:45:30.505Z,49.91
2018-08-19T16:48:00.372Z,49.96
2018-08-19T16:50:30.769Z,50.49
2018-08-19T16:53:00.607Z,50.23
2018-08-19T16:55:30.983Z,49.49
2018-08-19T16:58:00.895Z,49.68
2018-08-19T17:00:30.742Z,49.70
2018-08-19T17:03:01.048Z,50.61
2018-08-19T17:05:32.688Z,49.90
2018-08-19T17:08:02.618Z,50.95
2018-08-19T17:10:33.129Z,50.38
2018-08-19T17:13:03.034Z,50.73
2018-08-19T17:15:33.047Z,50.87
2018-08-19T17:18:03.098Z,51.37
2018-08-19T17:20:33.035Z,51.92
2018-08-19T17:23:02.933Z,51.24
2018-08-19T17:25:32.813Z,51.44
2018-08-19T17:28:08.085Z,52.20
2018-08-19T17:30:38.083Z,51.27
2018-08-19T17:33:10.403Z,51.37
2018-08-19T17:35:43.175Z,51.88
2018-08-19T17:38:13.089Z,51.84
2018-08-19T17:40:43.340Z,51.67
2018-08-19T17:43:13.391Z,52.97
2018-08-19T17:45:43.559Z,52.46
2018-08-19T17:48:13.447Z,53.02
2018-08-19T17:50:43.400Z,53.54
2018-08-19T17:53:13.240Z,53.14
2018-08-19T17:55:43.085Z,53.69
2018-08-19T17:58:13.096Z,54.23
2018-08-19T18:00:43.017Z,54.68
2018-08-19T18:03:13.281Z,54.98
2018-08-19T18:05:43.167Z,55.10
2018-08-19T18:08:13.273Z,54.64
2018-08-19T18:10:47.498Z,55.39
2018-08-19T18:13:17.470Z,55.08
2018-08-19T18:15:47.724Z,55.65
2018-08-19T18:18:18.698Z,56.09
2018-08-19T18:20:49.231Z,55.46
2018-08-19T18:23:24.448Z,56.01
2018-08-19T18:25:54.340Z,56.46
2018-08-19T18:28:28.784Z,55.77
2018-08-19T18:31:08.900Z,56.56
2018-08-19T18:33:53.281Z,56.51
2018-08-19T18:36:24.448Z,57.34
2018-08-19T18:38:54.520Z,57.48
2018-08-19T18:41:29.678Z,56.81
2018-08-19T18:44:01.062Z,57.14
2018-08-19T18:46:31.560Z,57.88
2018-08-19T18:49:09.663Z,58.17
2018-08-19T18:51:40.756Z,58.37
2018-08-19T18:54:20.489Z,57.75
2018-08-19T18:56:50.816Z,58.38
2018-08-19T18:59:20.890Z,58.18
2018-08-19T19:01:50.910Z,57.91
2018-08-19T19:04:21.185Z,57.95
2018-08-19T19:06:51.148Z,58.23
2018-08-19T19:09:21.306Z,59.18
2018-08-19T19:11:52.410Z,58.54
2018-08-19T19:14:23.117Z,58.77
2018-08-19T19:16:54.909Z,58.92
2018-08-19T19:19:25.178Z,59.84
2018-08-19T19:22:01.834Z,59.74
2018-08-19T19:24:37.222Z,59.69
2018-08-19T19:27:08.178Z,59.18
2018-08-19T19:29:38.474Z,59.77
2018-08-19T19:32:23.580Z,59.26
2018-08-19T19:34:53.910Z,59.26
2018-08-19T19:37:23.913Z,59.46
2018-08-19T19:40:01.084Z,59.59
2018-08-19T19:42:31.036Z,60.23
2018-08-19T19:45:02.774Z,60.57
2018-08-19T19:47:32.766Z,60.48
2018-08-19T19:50:02.995Z,61.04
2018-08-19T19:52:32.936Z,60.34
2018-08-19T19:55:02.916Z,61.51
2018-08-19T19:57:33.185Z,61.35
2018-08-19T20:00:03.365Z,60.56
2018-08-19T20:02:33.278Z,60.82
2018-08-19T20:05:11.202Z,61.60
2018-08-19T20:07:41.741Z,61.81
2018-08-19T20:10:19.799Z,61.39
2018-08-19T20:12:49.748Z,61.68
2018-08-19T20:15:20.187Z,61.72
2018-08-19T20:17:50.261Z,62.55
2018-08-19T20:20:20.101Z,62.95
2018-08-19T20:22:50.068Z,62.25
2018-08-19T20:25:19.971Z,62.34
2018-08-19T20:27:55.372Z,62.88
2018-08-19T20:30:25.352Z,62.08
2018-08-19T20:32:55.406Z,62.90
2018-08-19T20:35:25.236Z,62.34
2018-08-19T20:37:56.298Z,62.85
2018-08-19T20:40:26.239Z,62.75
2018-08-19T20:42:56.140Z,63.39
2018-08-19T20:45:26.217Z,62.98
2018-08-19T20:47:56.166Z,63.95
2018-08-19T20:50:26.232Z,63.94
2018-08-19T20:52:56.308Z,62.97
2018-08-19T20:55:26.249Z,64.14
2018-08-19T20:57:56.246Z,63.43
2018-08-19T21:00:26.275Z,64.14
2018-08-19T21:02:56.180Z,63.94
2018-08-19T21:05:26.383Z,63.99
2018-08-19T21:08:06.652Z,64.50
2018-08-19T21:10:37.073Z,63.96
2018-08-19T21:13:07.803Z,64.72
2018-08-19T21:15:39.219Z,64.95
2018-08-19T21:18:09.683Z,64.88
2018-08-19T21:20:39.904Z,64.90
2018-08-19T21:23:09.904Z,64.17
2018-08-19T21:25:50.253Z,64.73
2018-08-19T21:28:21.017Z,65.04
2018-08-19T21:30:50.977Z,64.99
2018-08-19T21:33:21.810Z,64.52
2018-08-19T21:35:54.753Z,64.64
2018-08-19T21:38:24.671Z,64.52
2018-08-19T21:40:56.740Z,64.61
2018-08-19T21:43:30.308Z,64.43
2018-08-19T21:46:00.758Z,64.56
2018-08-19T21:48:31.026Z,64.77
2018-08-19T21:51:00.842Z,65.60
2018-08-19T21:53:30.832Z,64.93
2018-08-19T21:56:00.713Z,65.74
2018-08-19T21:58:30.937Z,64.70
2018-08-19T22:01:02.459Z,65.46
2018-08-19T22:03:37.526Z,64.85
2018-08-19T22:06:09.436Z,65.24
2018-08-19T22:08:39.462Z,65.26
2018-08-19T22:11:09.473Z,65.33
2018-08-19T22:13:39.440Z,64.89
2018-08-19T22:16:09.681Z,64.35
2018-08-19T22:18:39.796Z,64.79
2018-08-19T22:21:19.240Z,65.43
2018-08-19T22:23:50.494Z,64.82
2018-08-19T22:26:21.549Z,64.27
2018-08-19T22:29:09.634Z,64.39
2018-08-19T22:31:39.476Z,64.88
2018-08-19T22:34:09.304Z,64.66
2018-08-19T22:36:39.201Z,64.82
2018-08-19T22:39:11.286Z,65.03
2018-08-19T22:41:41.372Z,64.97
2018-08-19T22:44:11.106Z,65.19
2018-08-19T22:46:40.928Z,64.71
2018-08-19T22:49:10.861Z,64.87
2018-08-19T22:51:40.713Z,64.77
2018-08-19T22:54:10.634Z,64.55
2018-08-19T22:56:40.666Z,64.31
2018-08-19T22:59:10.979Z,64.83
2018-08-19T23:01:45.942Z,64.11
2018-08-19T23:04:16.078Z,64.39
2018-08-19T23:06:45.832Z,64.88
2018-08-19T23:09:15.813Z,64.27
2018-08-19T23:11:48.038Z,64.25
2018-08-19T23:14:34.592Z,64.44
2018-08-19T23:17:08.073Z,64.53
2018-08-19T23:19:37.872Z,65.33
2018-08-19T23:22:07.844Z,65.45
2018-08-19T23:24:38.061Z,65.60
2018-08-19T23:27:08.027Z,65.49
2018-08-19T23:29:37.840Z,64.71
2018-08-19T23:32:07.799Z,65.71
2018-08-19T23:34:37.783Z,65.80
2018-08-19T23:37:07.776Z,65.74
2018-08-19T23:39:37.671Z,66.30
2018-08-19T23:42:07.591Z,66.47
2018-08-19T23:44:37.413Z,66.83
2018-08-19T23:47:07.509Z,66.49
2018-08-19T23:49:37.249Z,66.70
2018-08-19T23:52:07.096Z,67.97
2018-08-19T23:54:36.951Z,67.82
2018-08-19T23:57:06.917Z,67.92
2018-08-19T23:59:37.627Z,68.93
